createdAt,value
2023-04-15T00:04:39.801Z,100320.22
2023-04-15T00:09:36.572Z,100328.63
2023-04-15T00:14:34.243Z,100323.66
2023-04-15T00:19:31.040Z,100308.50
2023-04-15T00:24:28.674Z,100322.88
2023-04-15T00:29:25.294Z,100345.84
2023-04-15T00:34:21.997Z,100341.69
2023-04-15T00:39:18.732Z,100351.13
2023-04-15T00:44:18.311Z,100358.56
2023-04-15T00:49:17.853Z,100355.78
2023-04-15T00:54:14.783Z,100354.28
2023-04-15T00:59:11.455Z,100359.19
2023-04-15T01:04:11.020Z,100359.72
2023-04-15T01:09:07.908Z,100347.84
2023-04-15T01:14:05.285Z,100342.28
2023-04-15T01:19:02.358Z,100358.41
2023-04-15T01:24:04.031Z,100374.66
2023-04-15T01:29:01.547Z,100395.38
2023-04-15T01:34:00.319Z,100396.16
2023-04-15T01:38:57.358Z,100370.94
2023-04-15T01:43:54.248Z,100387.97
2023-04-15T01:48:51.544Z,100374.09
2023-04-15T01:53:48.087Z,100383.81
2023-04-15T01:58:44.717Z,100396.81
2023-04-15T02:03:41.602Z,100380.78
2023-04-15T02:08:40.513Z,100379.69
2023-04-15T02:13:37.599Z,100356.25
2023-04-15T02:18:34.234Z,100364.66
2023-04-15T02:23:31.478Z,100375.22
2023-04-15T02:28:28.955Z,100385.50
2023-04-15T02:33:25.558Z,100400.66
2023-04-15T02:38:22.209Z,100393.63
2023-04-15T02:43:18.858Z,100392.22
2023-04-15T02:48:18.372Z,100342.00
2023-04-15T02:53:15.029Z,100354.84
2023-04-15T02:58:11.824Z,100387.63
2023-04-15T03:03:10.238Z,100393.34
2023-04-15T03:08:07.811Z,100387.94
2023-04-15T03:13:04.414Z,100371.44
2023-04-15T03:18:01.090Z,100365.59
2023-04-15T03:22:57.765Z,100386.72
2023-04-15T03:27:56.266Z,100417.69
2023-04-15T03:32:52.951Z,100444.06
2023-04-15T03:37:51.832Z,100433.94
2023-04-15T03:42:48.442Z,100439.34
2023-04-15T03:47:45.988Z,100441.47
2023-04-15T03:52:42.619Z,100434.00
2023-04-15T03:57:39.293Z,100443.78
2023-04-15T04:02:37.572Z,100428.13
2023-04-15T04:07:34.988Z,100433.16
2023-04-15T04:12:31.646Z,100436.50
2023-04-15T04:17:28.331Z,100444.13
2023-04-15T04:22:25.900Z,100425.81
2023-04-15T04:27:23.205Z,100418.53
2023-04-15T04:32:19.862Z,100450.03
2023-04-15T04:37:16.401Z,100456.38
2023-04-15T04:42:12.924Z,100465.91
2023-04-15T04:47:10.869Z,100475.22
2023-04-15T04:52:07.363Z,100474.78
2023-04-15T04:57:04.013Z,100485.63
2023-04-15T05:02:00.915Z,100475.31
2023-04-15T05:06:59.238Z,100502.00
2023-04-15T05:11:56.137Z,100504.59
2023-04-15T05:16:52.776Z,100500.41
2023-04-15T05:21:49.436Z,100515.47
2023-04-15T05:26:47.034Z,100531.56
2023-04-15T05:31:43.887Z,100520.91
2023-04-15T05:36:40.540Z,100528.16
2023-04-15T05:41:37.601Z,100521.41
2023-04-15T05:46:35.081Z,100533.81
2023-04-15T05:51:31.784Z,100533.97
2023-04-15T05:56:28.318Z,100534.28
2023-04-15T06:01:25.551Z,100543.41
2023-04-15T06:06:23.020Z,100529.28
2023-04-15T06:11:20.623Z,100529.28
2023-04-15T06:16:17.585Z,100529.94
2023-04-15T06:21:14.269Z,100542.50
2023-04-15T06:26:11.484Z,100539.78
2023-04-15T06:31:08.389Z,100541.09
2023-04-15T06:36:05.205Z,100546.13
2023-04-15T06:41:02.685Z,100555.34
2023-04-15T06:45:59.952Z,100568.22
2023-04-15T06:50:57.658Z,100563.38
2023-04-15T06:56:22.791Z,100565.56
2023-04-15T07:01:20.870Z,100558.66
2023-04-15T07:06:17.690Z,100552.44
2023-04-15T07:11:17.269Z,100555.19
2023-04-15T07:16:18.713Z,100570.38
2023-04-15T07:21:16.613Z,100582.13
2023-04-15T07:26:13.355Z,100596.78
2023-04-15T07:31:10.070Z,100602.16
2023-04-15T07:36:10.153Z,100615.91
2023-04-15T07:41:16.633Z,100621.03
2023-04-15T07:46:21.227Z,100626.25
2023-04-15T07:51:18.732Z,100639.03
2023-04-15T07:56:17.227Z,100647.66
2023-04-15T08:01:14.008Z,100651.22
2023-04-15T08:06:10.642Z,100657.78
2023-04-15T08:11:07.414Z,100667.69
2023-04-15T08:16:17.730Z,100666.44
2023-04-15T08:21:14.528Z,100667.75
2023-04-15T08:26:13.010Z,100668.84
2023-04-15T08:31:10.056Z,100673.00
2023-04-15T08:36:08.072Z,100668.66
2023-04-15T08:41:12.427Z,100679.38
2023-04-15T08:46:09.339Z,100671.41
2023-04-15T08:51:06.951Z,100669.91
2023-04-15T08:56:05.701Z,100668.75
2023-04-15T09:01:02.906Z,100674.28
2023-04-15T09:05:59.631Z,100677.59
2023-04-15T09:10:56.342Z,100675.44
2023-04-15T09:15:54.729Z,100678.19
2023-04-15T09:20:56.395Z,100674.22
2023-04-15T09:25:53.135Z,100679.09
2023-04-15T09:30:51.950Z,100674.31
2023-04-15T09:35:57.119Z,100677.34
2023-04-15T09:40:55.711Z,100666.41
2023-04-15T09:45:53.556Z,100661.63
2023-04-15T09:50:50.504Z,100663.84
2023-04-15T09:55:50.330Z,100657.13
2023-04-15T10:00:47.287Z,100655.50
2023-04-15T10:05:44.288Z,100657.97
2023-04-15T10:10:41.021Z,100656.81
2023-04-15T10:15:38.816Z,100647.84
2023-04-15T10:20:36.231Z,100650.81
2023-04-15T10:25:33.626Z,100650.84
2023-04-15T10:30:31.554Z,100641.81
2023-04-15T10:35:30.225Z,100665.44
2023-04-15T10:40:27.837Z,100658.84
2023-04-15T10:45:26.792Z,100654.28
2023-04-15T10:50:29.253Z,100655.31
2023-04-15T10:55:27.328Z,100637.66
2023-04-15T11:00:25.636Z,100649.34
2023-04-15T11:05:37.498Z,100654.97
2023-04-15T11:10:55.680Z,100652.63
2023-04-15T11:15:55.456Z,100659.41
2023-04-15T11:20:54.088Z,100656.66
2023-04-15T11:25:51.884Z,100643.59
2023-04-15T11:30:48.927Z,100645.69
2023-04-15T11:35:46.484Z,100646.19
2023-04-15T11:40:46.170Z,100656.50
2023-04-15T11:45:52.431Z,100651.03
2023-04-15T11:50:53.665Z,100647.56
2023-04-15T11:55:51.246Z,100631.91
2023-04-15T12:00:49.067Z,100637.69
2023-04-15T12:06:00.715Z,100631.13
2023-04-15T12:10:59.648Z,100623.13
2023-04-15T12:15:56.539Z,100599.38
2023-04-15T12:20:54.055Z,100616.00
2023-04-15T12:25:52.004Z,100609.50
2023-04-15T12:30:53.824Z,100609.72
2023-04-15T12:35:53.441Z,100606.13
2023-04-15T12:40:50.729Z,100613.97
2023-04-15T12:45:47.520Z,100614.09
2023-04-15T12:50:44.751Z,100610.59
2023-04-15T12:55:41.350Z,100616.06
2023-04-15T13:00:40.082Z,100614.78
2023-04-15T13:05:38.601Z,100621.66
2023-04-15T13:10:36.257Z,100617.69
2023-04-15T13:15:33.033Z,100615.03
2023-04-15T13:20:31.238Z,100618.91
2023-04-15T13:25:27.906Z,100620.09
2023-04-15T13:30:25.202Z,100629.28
2023-04-15T13:35:21.880Z,100618.72
2023-04-15T13:40:20.047Z,100626.38
2023-04-15T13:45:16.757Z,100629.13
2023-04-15T13:50:14.227Z,100629.28
2023-04-15T13:55:20.521Z,100634.47
2023-04-15T14:00:17.915Z,100637.03
2023-04-15T14:05:15.328Z,100635.81
2023-04-15T14:10:11.948Z,100632.44
2023-04-15T14:15:09.136Z,100632.44
2023-04-15T14:20:07.331Z,100637.63
2023-04-15T14:25:05.872Z,100638.59
2023-04-15T14:30:02.700Z,100648.53
2023-04-15T14:34:59.273Z,100643.19
2023-04-15T14:39:56.163Z,100652.03
2023-04-15T14:44:55.893Z,100632.38
2023-04-15T14:49:52.510Z,100653.94
2023-04-15T14:54:49.588Z,100653.94
2023-04-15T14:59:46.204Z,100664.69
2023-04-15T15:04:46.583Z,100667.25
2023-04-15T15:09:43.476Z,100664.81
2023-04-15T15:14:42.416Z,100668.69
2023-04-15T15:19:39.275Z,100665.03
2023-04-15T15:24:41.008Z,100655.47
2023-04-15T15:29:37.897Z,100658.06
2023-04-15T15:34:34.414Z,100663.25
2023-04-15T15:39:31.180Z,100652.41
2023-04-15T15:44:35.654Z,100654.56
2023-04-15T15:49:32.282Z,100646.22
2023-04-15T15:54:29.264Z,100649.09
2023-04-15T15:59:25.895Z,100637.53
2023-04-15T16:04:29.469Z,100639.59
2023-04-15T16:09:26.457Z,100637.78
2023-04-15T16:14:24.475Z,100630.38
2023-04-15T16:19:22.751Z,100625.59
2023-04-15T16:24:20.090Z,100624.56
2023-04-15T16:29:16.912Z,100628.03
2023-04-15T16:34:15.382Z,100631.53
2023-04-15T16:39:12.155Z,100627.03
2023-04-15T16:44:10.212Z,100609.16
2023-04-15T16:49:06.875Z,100631.16
2023-04-15T16:54:03.699Z,100628.84
2023-04-15T16:59:00.282Z,100637.53
2023-04-15T17:03:57.757Z,100645.50
2023-04-15T17:08:54.361Z,100619.91
2023-04-15T17:13:50.930Z,100644.03
2023-04-15T17:18:49.556Z,100656.56
2023-04-15T17:23:46.989Z,100662.97
2023-04-15T17:28:43.542Z,100662.88
2023-04-15T17:34:00.715Z,100672.00
2023-04-15T17:38:57.737Z,100680.84
2023-04-15T17:43:54.411Z,100689.22
2023-04-15T17:48:51.114Z,100688.28
2023-04-15T17:53:47.759Z,100688.59
2023-04-15T17:58:45.043Z,100694.44
2023-04-15T18:03:41.765Z,100699.44
2023-04-15T18:08:38.411Z,100699.75
2023-04-15T18:13:35.506Z,100698.53
2023-04-15T18:18:40.007Z,100702.94
2023-04-15T18:23:47.702Z,100710.66
2023-04-15T18:28:44.460Z,100722.38
2023-04-15T18:33:41.725Z,100723.41
2023-04-15T18:38:38.400Z,100706.63
2023-04-15T18:43:34.995Z,100729.81
2023-04-15T18:48:31.705Z,100733.97
2023-04-15T18:53:28.966Z,100728.44
2023-04-15T18:58:25.570Z,100740.53
2023-04-15T19:03:22.234Z,100737.66
2023-04-15T19:08:19.128Z,100741.81
2023-04-15T19:13:19.722Z,100738.28
2023-04-15T19:18:16.503Z,100732.03
2023-04-15T19:23:13.235Z,100735.31
2023-04-15T19:28:09.857Z,100733.06
2023-04-15T19:33:07.258Z,100735.81
2023-04-15T19:38:04.281Z,100730.97
2023-04-15T19:43:01.020Z,100738.53
2023-04-15T19:47:57.808Z,100733.00
2023-04-15T19:52:55.370Z,100733.41
2023-04-15T19:57:51.894Z,100731.56
2023-04-15T20:02:48.751Z,100736.03
2023-04-15T20:07:47.944Z,100738.97
2023-04-15T20:12:49.414Z,100742.84
2023-04-15T20:17:49.447Z,100746.56
2023-04-15T20:22:47.755Z,100745.91
2023-04-15T20:27:45.234Z,100750.25
2023-04-15T20:32:41.934Z,100745.72
2023-04-15T20:37:39.887Z,100744.41
2023-04-15T20:42:36.487Z,100746.41
2023-04-15T20:47:33.976Z,100742.25
2023-04-15T20:52:30.627Z,100743.00
2023-04-15T20:57:29.535Z,100745.97
2023-04-15T21:02:26.282Z,100740.34
2023-04-15T21:07:23.604Z,100739.09
2023-04-15T21:12:20.385Z,100747.06
2023-04-15T21:17:16.972Z,100719.41
2023-04-15T21:22:13.481Z,100735.63
2023-04-15T21:27:10.917Z,100734.91
2023-04-15T21:32:07.502Z,100740.69
2023-04-15T21:37:04.152Z,100737.91
2023-04-15T21:42:03.423Z,100741.50
2023-04-15T21:47:01.521Z,100737.91
2023-04-15T21:52:00.443Z,100734.00
2023-04-15T21:56:57.177Z,100736.63
2023-04-15T22:01:54.118Z,100732.56
2023-04-15T22:06:55.008Z,100732.31
2023-04-15T22:11:51.602Z,100731.09
2023-04-15T22:16:48.210Z,100730.63
2023-04-15T22:21:46.791Z,100728.53
2023-04-15T22:26:44.056Z,100726.25
2023-04-15T22:31:41.320Z,100726.72
2023-04-15T22:36:38.144Z,100700.78
2023-04-15T22:41:34.737Z,100719.13
2023-04-15T22:46:32.122Z,100716.72
2023-04-15T22:51:29.018Z,100707.31
2023-04-15T22:56:25.738Z,100690.47
2023-04-15T23:01:22.340Z,100706.28
2023-04-15T23:06:19.595Z,100682.63
2023-04-15T23:11:16.452Z,100698.53
2023-04-15T23:16:13.016Z,100697.38
2023-04-15T23:21:09.797Z,100703.81
2023-04-15T23:26:07.027Z,100703.25
2023-04-15T23:31:03.592Z,100704.81
2023-04-15T23:36:00.301Z,100694.91
2023-04-15T23:40:56.914Z,100696.44
2023-04-15T23:45:54.258Z,100694.72
2023-04-15T23:50:50.752Z,100676.75
2023-04-15T23:55:47.915Z,100672.94
